Huvudsida
METAR-TAF:

METAR-TAF

Flygplatser :

Trondheims flygplats. Værnes

Trondheim, Norge

latitud: 63-28N, longitud: 010-56E, höjd: 1 m

Aktuellt väderrapport

Denna rapport gjordes för 11 minuter sedan, klockan 21:50 UTC
Vind 5 kt från sydost, varierande mellan ost och syd
Temperatur -2°C
Fuktighet 63%
Tryck 1004 hPa
Sikt 10 km eller mer
Inga moln under 1 500 m eller inga cumulonimbus

METAR: ENVA 112150Z 13005KT 080V190 CAVOK M02/M08 Q1004 RMK WIND 670FT 17014KT

Tid: 23:01 (22:01 UTC)

Väderprognos

Prognos gäller från 11 kl. 18 UTC till 12 kl. 18 UTC
Vind 8 kt från ost
Sikt 10 km eller mer
Inga moln under 1 500 m eller inga cumulonimbus
Sannolikhet 30% :
Temporärt
från 11 kl. 18 UTC till 12 kl. 18 UTC
Vind 15 kt från sydost i byarna ända upp till 25 kt

TAF: ENVA 1118/1218 10008KT CAVOK PROB30 TEMPO 1118/1218 14015G25KT

Aktuella väderrapporter och prognoser från 4000 flygplatser (METAR- och TAF-rapporter).

De tillgängliga stationerna syns som gula och röda prickar på kartan.

För musen över prickarna för att se namnen på stationerna.

Klicka sedan för att få väderrapporter och prognoser.

För att ändra kartan: Klicka på de gröna knapparna med ett svart kors på för att zooma in; den gröna knappen med ett streck på för att zooma ut; eller på de gröna pilarna för angränsande kartor.


METAR-TAF: